sensor_id;sensor_type;location;lat;lon;timestamp;pressure;altitude;pressure_sealevel;temperature
13497;BMP180;6820;49.374;8.452;2023-07-28T00:01:38;99756.75;;;26.02
13497;BMP180;6820;49.374;8.452;2023-07-28T00:05:39;99754.16;;;26.02
13497;BMP180;6820;49.374;8.452;2023-07-28T00:09:41;99762.81;;;26.04
13497;BMP180;6820;49.374;8.452;2023-07-28T00:13:43;99761.94;;;26.04
13497;BMP180;6820;49.374;8.452;2023-07-28T00:17:44;99755.88;;;26.05
13497;BMP180;6820;49.374;8.452;2023-07-28T00:21:47;99759.34;;;26.04
13497;BMP180;6820;49.374;8.452;2023-07-28T00:25:49;99766.22;;;26.06
13497;BMP180;6820;49.374;8.452;2023-07-28T00:29:51;99767.13;;;26.07
13497;BMP180;6820;49.374;8.452;2023-07-28T00:33:52;99763.63;;;26.08
13497;BMP180;6820;49.374;8.452;2023-07-28T00:37:54;99759.28;;;26.08
13497;BMP180;6820;49.374;8.452;2023-07-28T00:41:56;99751.53;;;26.07
13497;BMP180;6820;49.374;8.452;2023-07-28T00:45:57;99751.53;;;26.07
13497;BMP180;6820;49.374;8.452;2023-07-28T00:49:59;99748.13;;;26.02
13497;BMP180;6820;49.374;8.452;2023-07-28T00:54:02;99737.69;;;26.03
13497;BMP180;6820;49.374;8.452;2023-07-28T00:58:05;99748.13;;;26.00
13497;BMP180;6820;49.374;8.452;2023-07-28T01:02:07;99752.44;;;26.03
13497;BMP180;6820;49.374;8.452;2023-07-28T01:06:27;99750.69;;;26.03
13497;BMP180;6820;49.374;8.452;2023-07-28T01:10:32;99754.16;;;26.02
13497;BMP180;6820;49.374;8.452;2023-07-28T01:14:34;99752.44;;;26.03
13497;BMP180;6820;49.374;8.452;2023-07-28T01:18:35;99751.53;;;26.04
13497;BMP180;6820;49.374;8.452;2023-07-28T01:22:51;99741.16;;;26.04
13497;BMP180;6820;49.374;8.452;2023-07-28T01:26:58;99747.25;;;26.03
13497;BMP180;6820;49.374;8.452;2023-07-28T01:31:06;99719.56;;;26.00
13497;BMP180;6820;49.374;8.452;2023-07-28T01:35:08;99726.50;;;26.00
13497;BMP180;6820;49.374;8.452;2023-07-28T01:39:10;99727.38;;;25.98
13497;BMP180;6820;49.374;8.452;2023-07-28T01:43:11;99735.22;;;25.93
13497;BMP180;6820;49.374;8.452;2023-07-28T01:47:13;99728.34;;;25.88
13497;BMP180;6820;49.374;8.452;2023-07-28T01:51:15;99742.22;;;25.85
13497;BMP180;6820;49.374;8.452;2023-07-28T01:55:17;99738.75;;;25.86
13497;BMP180;6820;49.374;8.452;2023-07-28T01:59:18;99736.19;;;25.83
13497;BMP180;6820;49.374;8.452;2023-07-28T02:03:22;99733.56;;;25.86
13497;BMP180;6820;49.374;8.452;2023-07-28T02:07:24;99743.06;;;25.89
13497;BMP180;6820;49.374;8.452;2023-07-28T02:11:26;99734.41;;;25.90
13497;BMP180;6820;49.374;8.452;2023-07-28T02:15:27;99737.84;;;25.90
13497;BMP180;6820;49.374;8.452;2023-07-28T02:19:30;99731.78;;;25.90
13497;BMP180;6820;49.374;8.452;2023-07-28T02:23:32;99722.31;;;25.89
13497;BMP180;6820;49.374;8.452;2023-07-28T02:27:34;99712.78;;;25.88
13497;BMP180;6820;49.374;8.452;2023-07-28T02:31:35;99719.75;;;25.86
13497;BMP180;6820;49.374;8.452;2023-07-28T02:35:37;99718.06;;;25.80
13497;BMP180;6820;49.374;8.452;2023-07-28T02:39:38;99715.47;;;25.80
13497;BMP180;6820;49.374;8.452;2023-07-28T02:43:42;99721.50;;;25.81
13497;BMP180;6820;49.374;8.452;2023-07-28T02:47:44;99736.25;;;25.80
13497;BMP180;6820;49.374;8.452;2023-07-28T02:51:45;99733.66;;;25.80
13497;BMP180;6820;49.374;8.452;2023-07-28T02:55:48;99741.44;;;25.80
13497;BMP180;6820;49.374;8.452;2023-07-28T02:59:49;99733.66;;;25.80
13497;BMP180;6820;49.374;8.452;2023-07-28T03:03:53;99738.84;;;25.80
13497;BMP180;6820;49.374;8.452;2023-07-28T03:07:55;99740.53;;;25.81
13497;BMP180;6820;49.374;8.452;2023-07-28T03:11:57;99738.81;;;25.83
13497;BMP180;6820;49.374;8.452;2023-07-28T03:15:59;99742.22;;;25.87
13497;BMP180;6820;49.374;8.452;2023-07-28T03:20:00;99743.06;;;25.87
13497;BMP180;6820;49.374;8.452;2023-07-28T03:24:02;99735.28;;;25.89
13497;BMP180;6820;49.374;8.452;2023-07-28T03:28:05;99736.13;;;25.89
13497;BMP180;6820;49.374;8.452;2023-07-28T03:32:07;99737.03;;;25.88
13497;BMP180;6820;49.374;8.452;2023-07-28T03:36:09;99731.84;;;25.87
13497;BMP180;6820;49.374;8.452;2023-07-28T03:40:11;99723.22;;;25.83
13497;BMP180;6820;49.374;8.452;2023-07-28T03:44:23;99725.78;;;25.85
13497;BMP180;6820;49.374;8.452;2023-07-28T03:48:25;99725.81;;;25.83
13497;BMP180;6820;49.374;8.452;2023-07-28T03:52:26;99724.97;;;25.81
13497;BMP180;6820;49.374;8.452;2023-07-28T03:56:28;99737.16;;;25.75
13497;BMP180;6820;49.374;8.452;2023-07-28T04:00:30;99731.13;;;25.73
13497;BMP180;6820;49.374;8.452;2023-07-28T04:04:32;99738.91;;;25.73
13497;BMP180;6820;49.374;8.452;2023-07-28T04:08:33;99741.50;;;25.73
13497;BMP180;6820;49.374;8.452;2023-07-28T04:12:35;99738.91;;;25.71
13497;BMP180;6820;49.374;8.452;2023-07-28T04:16:36;99748.41;;;25.75
13497;BMP180;6820;49.374;8.452;2023-07-28T04:20:39;99745.81;;;25.75
13497;BMP180;6820;49.374;8.452;2023-07-28T04:24:41;99742.34;;;25.73
13497;BMP180;6820;49.374;8.452;2023-07-28T04:28:43;99753.59;;;25.75
13497;BMP180;6820;49.374;8.452;2023-07-28T04:32:45;99753.56;;;25.77
13497;BMP180;6820;49.374;8.452;2023-07-28T04:36:51;99758.75;;;25.78
13497;BMP180;6820;49.374;8.452;2023-07-28T04:40:57;99755.22;;;25.82
13497;BMP180;6820;49.374;8.452;2023-07-28T04:45:15;99766.47;;;25.86
13497;BMP180;6820;49.374;8.452;2023-07-28T04:49:17;99762.97;;;25.91
13497;BMP180;6820;49.374;8.452;2023-07-28T04:53:37;99769.97;;;25.77
13497;BMP180;6820;49.374;8.452;2023-07-28T04:57:44;99774.38;;;25.71
13497;BMP180;6820;49.374;8.452;2023-07-28T05:01:46;99774.41;;;25.70
13497;BMP180;6820;49.374;8.452;2023-07-28T05:05:47;99771.00;;;25.63
13497;BMP180;6820;49.374;8.452;2023-07-28T05:09:49;99783.13;;;25.60
13497;BMP180;6820;49.374;8.452;2023-07-28T05:13:52;99789.19;;;25.59
13497;BMP180;6820;49.374;8.452;2023-07-28T05:17:54;99776.22;;;25.59
13497;BMP180;6820;49.374;8.452;2023-07-28T05:22:18;99780.50;;;25.66
13497;BMP180;6820;49.374;8.452;2023-07-28T05:26:26;99779.69;;;25.59
13497;BMP180;6820;49.374;8.452;2023-07-28T05:30:28;99789.16;;;25.63
13497;BMP180;6820;49.374;8.452;2023-07-28T05:34:32;99793.44;;;25.70
13497;BMP180;6820;49.374;8.452;2023-07-28T05:38:34;99795.06;;;25.80
13497;BMP180;6820;49.374;8.452;2023-07-28T05:42:35;99794.94;;;25.93
13497;BMP180;6820;49.374;8.452;2023-07-28T05:46:38;99794.88;;;26.00
13497;BMP180;6820;49.374;8.452;2023-07-28T05:50:40;99798.31;;;26.01
13497;BMP180;6820;49.374;8.452;2023-07-28T05:54:42;99796.63;;;26.01
13497;BMP180;6820;49.374;8.452;2023-07-28T05:58:47;99798.28;;;26.05
13497;BMP180;6820;49.374;8.452;2023-07-28T06:02:49;99804.31;;;26.09
13497;BMP180;6820;49.374;8.452;2023-07-28T06:07:09;99812.06;;;26.15
13497;BMP180;6820;49.374;8.452;2023-07-28T06:11:11;99816.38;;;26.19
13497;BMP180;6820;49.374;8.452;2023-07-28T06:15:13;99811.88;;;26.32
13497;BMP180;6820;49.374;8.452;2023-07-28T06:19:15;99820.38;;;26.46
13497;BMP180;6820;49.374;8.452;2023-07-28T06:23:18;99818.53;;;26.57
13497;BMP180;6820;49.374;8.452;2023-07-28T06:27:20;99830.59;;;26.62
13497;BMP180;6820;49.374;8.452;2023-07-28T06:31:22;99832.28;;;26.66
13497;BMP180;6820;49.374;8.452;2023-07-28T06:35:24;99839.16;;;26.76
13497;BMP180;6820;49.374;8.452;2023-07-28T06:39:26;99846.78;;;26.87
13497;BMP180;6820;49.374;8.452;2023-07-28T06:43:28;99847.56;;;26.94
13497;BMP180;6820;49.374;8.452;2023-07-28T06:47:29;99852.72;;;26.97
13497;BMP180;6820;49.374;8.452;2023-07-28T06:51:31;99858.75;;;26.99
13497;BMP180;6820;49.374;8.452;2023-07-28T06:55:34;99861.38;;;26.99
13497;BMP180;6820;49.374;8.452;2023-07-28T06:59:38;99872.66;;;26.98
13497;BMP180;6820;49.374;8.452;2023-07-28T07:03:40;99870.97;;;26.96
13497;BMP180;6820;49.374;8.452;2023-07-28T07:07:41;99870.09;;;26.94
13497;BMP180;6820;49.374;8.452;2023-07-28T07:11:43;99871.84;;;26.92
13497;BMP180;6820;49.374;8.452;2023-07-28T07:15:45;99877.94;;;26.93
13497;BMP180;6820;49.374;8.452;2023-07-28T07:19:47;99879.66;;;26.92
13497;BMP180;6820;49.374;8.452;2023-07-28T07:23:49;99883.09;;;26.94
13497;BMP180;6820;49.374;8.452;2023-07-28T07:28:00;99881.34;;;26.94
13497;BMP180;6820;49.374;8.452;2023-07-28T07:32:02;99880.47;;;26.98
13497;BMP180;6820;49.374;8.452;2023-07-28T07:36:04;99886.47;;;27.02
13497;BMP180;6820;49.374;8.452;2023-07-28T07:40:07;99889.88;;;27.07
13497;BMP180;6820;49.374;8.452;2023-07-28T07:44:09;99894.91;;;27.20
13497;BMP180;6820;49.374;8.452;2023-07-28T07:48:10;99891.94;;;27.51
13497;BMP180;6820;49.374;8.452;2023-07-28T07:52:12;99901.06;;;27.77
13497;BMP180;6820;49.374;8.452;2023-07-28T07:56:14;99905.16;;;27.94
13497;BMP180;6820;49.374;8.452;2023-07-28T08:00:15;99907.59;;;28.05
13497;BMP180;6820;49.374;8.452;2023-07-28T08:04:17;99911.84;;;28.10
13497;BMP180;6820;49.374;8.452;2023-07-28T08:08:19;99913.63;;;28.07
13497;BMP180;6820;49.374;8.452;2023-07-28T08:12:21;99918.97;;;27.99
13497;BMP180;6820;49.374;8.452;2023-07-28T08:16:23;99924.09;;;28.04
13497;BMP180;6820;49.374;8.452;2023-07-28T08:20:24;99922.28;;;28.10
13497;BMP180;6820;49.374;8.452;2023-07-28T08:24:26;99915.03;;;28.25
13497;BMP180;6820;49.374;8.452;2023-07-28T08:28:29;99924.63;;;28.25
13497;BMP180;6820;49.374;8.452;2023-07-28T08:32:31;99922.56;;;28.43
13497;BMP180;6820;49.374;8.452;2023-07-28T08:36:34;99921.69;;;28.44
13497;BMP180;6820;49.374;8.452;2023-07-28T08:40:36;99922.41;;;28.53
13497;BMP180;6820;49.374;8.452;2023-07-28T08:44:37;99916.16;;;28.63
13497;BMP180;6820;49.374;8.452;2023-07-28T08:48:39;99919.03;;;28.93
13497;BMP180;6820;49.374;8.452;2023-07-28T08:52:41;99920.69;;;29.41
13497;BMP180;6820;49.374;8.452;2023-07-28T08:56:43;99917.88;;;29.48
13497;BMP180;6820;49.374;8.452;2023-07-28T09:00:49;99923.34;;;29.76
13497;BMP180;6820;49.374;8.452;2023-07-28T09:04:52;99931.59;;;29.59
13497;BMP180;6820;49.374;8.452;2023-07-28T09:08:56;99919.22;;;29.28
13497;BMP180;6820;49.374;8.452;2023-07-28T09:12:59;99918.94;;;29.40
13497;BMP180;6820;49.374;8.452;2023-07-28T09:17:11;99923.31;;;29.39
13497;BMP180;6820;49.374;8.452;2023-07-28T09:21:19;99923.69;;;29.21
13497;BMP180;6820;49.374;8.452;2023-07-28T09:25:22;99928.25;;;29.12
13497;BMP180;6820;49.374;8.452;2023-07-28T09:29:25;99935.09;;;29.16
13497;BMP180;6820;49.374;8.452;2023-07-28T09:33:31;99935.16;;;29.13
13497;BMP180;6820;49.374;8.452;2023-07-28T09:37:35;99932.34;;;29.23
13497;BMP180;6820;49.374;8.452;2023-07-28T09:41:38;99936.97;;;29.51
13497;BMP180;6820;49.374;8.452;2023-07-28T09:45:40;99926.19;;;29.68
13497;BMP180;6820;49.374;8.452;2023-07-28T09:49:46;99927.88;;;29.70
13497;BMP180;6820;49.374;8.452;2023-07-28T09:53:55;99926.69;;;30.19
13497;BMP180;6820;49.374;8.452;2023-07-28T09:57:58;99923.88;;;30.59
13497;BMP180;6820;49.374;8.452;2023-07-28T10:02:03;99922.25;;;30.88
13497;BMP180;6820;49.374;8.452;2023-07-28T10:06:05;99920.38;;;30.92
13497;BMP180;6820;49.374;8.452;2023-07-28T10:10:11;99928.31;;;31.19
13497;BMP180;6820;49.374;8.452;2023-07-28T10:14:25;99924.63;;;31.56
13497;BMP180;6820;49.374;8.452;2023-07-28T10:18:27;99922.63;;;31.63
13497;BMP180;6820;49.374;8.452;2023-07-28T10:22:29;99922.59;;;31.65
13497;BMP180;6820;49.374;8.452;2023-07-28T10:26:38;99930.44;;;31.38
13497;BMP180;6820;49.374;8.452;2023-07-28T10:30:52;99937.47;;;31.04
13497;BMP180;6820;49.374;8.452;2023-07-28T10:35:00;99940.84;;;30.78
13497;BMP180;6820;49.374;8.452;2023-07-28T10:43:09;99936.63;;;30.74
13497;BMP180;6820;49.374;8.452;2023-07-28T10:47:11;99938.06;;;30.84
13497;BMP180;6820;49.374;8.452;2023-07-28T10:51:25;99936.00;;;30.95
13497;BMP180;6820;49.374;8.452;2023-07-28T10:55:27;99936.94;;;30.94
13497;BMP180;6820;49.374;8.452;2023-07-28T10:59:29;99930.84;;;30.93
13497;BMP180;6820;49.374;8.452;2023-07-28T11:03:32;99943.38;;;30.81
13497;BMP180;6820;49.374;8.452;2023-07-28T11:07:47;99944.28;;;30.80
13497;BMP180;6820;49.374;8.452;2023-07-28T11:11:50;99942.41;;;30.85
13497;BMP180;6820;49.374;8.452;2023-07-28T11:15:52;99934.75;;;30.79
13497;BMP180;6820;49.374;8.452;2023-07-28T11:19:53;99938.53;;;30.66
13497;BMP180;6820;49.374;8.452;2023-07-28T11:23:56;99936.09;;;30.92
13497;BMP180;6820;49.374;8.452;2023-07-28T11:28:03;99939.41;;;31.29
13497;BMP180;6820;49.374;8.452;2023-07-28T11:32:08;99933.94;;;31.65
13497;BMP180;6820;49.374;8.452;2023-07-28T11:36:09;99938.88;;;31.76
13497;BMP180;6820;49.374;8.452;2023-07-28T11:40:15;99941.94;;;31.89
13497;BMP180;6820;49.374;8.452;2023-07-28T11:44:18;99936.63;;;32.18
13497;BMP180;6820;49.374;8.452;2023-07-28T11:48:20;99937.06;;;32.32
13497;BMP180;6820;49.374;8.452;2023-07-28T11:52:22;99946.34;;;32.42
13497;BMP180;6820;49.374;8.452;2023-07-28T11:56:24;99943.28;;;32.28
13497;BMP180;6820;49.374;8.452;2023-07-28T12:00:32;99944.50;;;31.91
13497;BMP180;6820;49.374;8.452;2023-07-28T12:04:40;99958.13;;;31.45
13497;BMP180;6820;49.374;8.452;2023-07-28T12:08:46;99951.13;;;30.85
13497;BMP180;6820;49.374;8.452;2023-07-28T12:12:47;99960.78;;;30.49
13497;BMP180;6820;49.374;8.452;2023-07-28T12:16:54;99951.22;;;30.48
13497;BMP180;6820;49.374;8.452;2023-07-28T12:20:59;99962.88;;;30.35
13497;BMP180;6820;49.374;8.452;2023-07-28T12:25:01;99967.09;;;30.40
13497;BMP180;6820;49.374;8.452;2023-07-28T12:29:03;99967.94;;;30.42
13497;BMP180;6820;49.374;8.452;2023-07-28T12:33:11;99975.19;;;30.32
13497;BMP180;6820;49.374;8.452;2023-07-28T12:37:16;99973.94;;;30.10
13497;BMP180;6820;49.374;8.452;2023-07-28T12:41:38;99974.22;;;29.98
13497;BMP180;6820;49.374;8.452;2023-07-28T12:45:43;99984.03;;;29.89
13497;BMP180;6820;49.374;8.452;2023-07-28T12:49:48;99980.13;;;29.69
13497;BMP180;6820;49.374;8.452;2023-07-28T12:53:53;99978.53;;;29.60
13497;BMP180;6820;49.374;8.452;2023-07-28T12:57:54;99993.50;;;29.52
13497;BMP180;6820;49.374;8.452;2023-07-28T13:01:56;99984.97;;;29.44
13497;BMP180;6820;49.374;8.452;2023-07-28T13:05:58;99989.34;;;29.44
13497;BMP180;6820;49.374;8.452;2023-07-28T13:09:59;99991.88;;;29.48
13497;BMP180;6820;49.374;8.452;2023-07-28T13:14:02;99994.72;;;29.38
13497;BMP180;6820;49.374;8.452;2023-07-28T13:18:03;100006.19;;;29.30
13497;BMP180;6820;49.374;8.452;2023-07-28T13:22:05;99992.09;;;29.38
13497;BMP180;6820;49.374;8.452;2023-07-28T13:26:11;100003.41;;;29.39
13497;BMP180;6820;49.374;8.452;2023-07-28T13:30:13;99992.09;;;29.38
13497;BMP180;6820;49.374;8.452;2023-07-28T13:34:14;99989.34;;;29.44
13497;BMP180;6820;49.374;8.452;2023-07-28T13:38:16;99984.13;;;29.44
13497;BMP180;6820;49.374;8.452;2023-07-28T13:42:18;99986.72;;;29.45
13497;BMP180;6820;49.374;8.452;2023-07-28T13:46:19;99977.19;;;29.43
13497;BMP180;6820;49.374;8.452;2023-07-28T13:50:21;99976.38;;;29.40
13497;BMP180;6820;49.374;8.452;2023-07-28T13:54:23;99975.59;;;29.36
13497;BMP180;6820;49.374;8.452;2023-07-28T13:58:25;99971.28;;;29.34
13497;BMP180;6820;49.374;8.452;2023-07-28T14:02:27;99972.22;;;29.31
13497;BMP180;6820;49.374;8.452;2023-07-28T14:06:29;99971.47;;;29.25
13497;BMP180;6820;49.374;8.452;2023-07-28T14:10:31;99977.63;;;29.21
13497;BMP180;6820;49.374;8.452;2023-07-28T14:14:36;99991.53;;;29.21
13497;BMP180;6820;49.374;8.452;2023-07-28T14:18:37;99995.84;;;29.24
13497;BMP180;6820;49.374;8.452;2023-07-28T14:22:39;100000.25;;;29.22
13497;BMP180;6820;49.374;8.452;2023-07-28T14:26:41;99989.75;;;29.25
13497;BMP180;6820;49.374;8.452;2023-07-28T14:30:42;99996.63;;;29.29
13497;BMP180;6820;49.374;8.452;2023-07-28T14:34:47;99988.91;;;29.24
13497;BMP180;6820;49.374;8.452;2023-07-28T14:38:49;99985.31;;;29.30
13497;BMP180;6820;49.374;8.452;2023-07-28T14:42:51;99980.88;;;29.33
13497;BMP180;6820;49.374;8.452;2023-07-28T14:46:53;99984.34;;;29.34
13497;BMP180;6820;49.374;8.452;2023-07-28T14:50:55;99998.38;;;29.28
13497;BMP180;6820;49.374;8.452;2023-07-28T14:54:56;100002.81;;;29.23
13497;BMP180;6820;49.374;8.452;2023-07-28T14:58:58;100001.91;;;29.27
13497;BMP180;6820;49.374;8.452;2023-07-28T15:03:02;100007.13;;;29.27
13497;BMP180;6820;49.374;8.452;2023-07-28T15:07:04;99995.03;;;29.22
13497;BMP180;6820;49.374;8.452;2023-07-28T15:11:06;100001.25;;;29.15
13497;BMP180;6820;49.374;8.452;2023-07-28T15:15:08;99989.09;;;29.14
13497;BMP180;6820;49.374;8.452;2023-07-28T15:19:09;99989.88;;;29.19
13497;BMP180;6820;49.374;8.452;2023-07-28T15:23:11;99984.63;;;29.20
13497;BMP180;6820;49.374;8.452;2023-07-28T15:27:13;99994.13;;;29.23
13497;BMP180;6820;49.374;8.452;2023-07-28T15:31:14;99981.94;;;29.25
13497;BMP180;6820;49.374;8.452;2023-07-28T15:35:16;99983.69;;;29.23
13497;BMP180;6820;49.374;8.452;2023-07-28T15:39:18;99989.03;;;29.17
13497;BMP180;6820;49.374;8.452;2023-07-28T15:43:20;99983.06;;;29.10
13497;BMP180;6820;49.374;8.452;2023-07-28T15:47:21;99978.69;;;29.12
13497;BMP180;6820;49.374;8.452;2023-07-28T15:51:23;99988.25;;;29.13
13497;BMP180;6820;49.374;8.452;2023-07-28T15:55:24;99986.63;;;29.07
13497;BMP180;6820;49.374;8.452;2023-07-28T15:59:28;99987.59;;;29.01
13497;BMP180;6820;49.374;8.452;2023-07-28T16:03:30;99987.66;;;28.98
13497;BMP180;6820;49.374;8.452;2023-07-28T16:07:32;99985.91;;;28.97
13497;BMP180;6820;49.374;8.452;2023-07-28T16:11:34;99982.44;;;28.97
13497;BMP180;6820;49.374;8.452;2023-07-28T16:15:37;99985.94;;;28.96
13497;BMP180;6820;49.374;8.452;2023-07-28T16:19:39;99995.53;;;28.94
13497;BMP180;6820;49.374;8.452;2023-07-28T16:23:41;99995.53;;;28.94
13497;BMP180;6820;49.374;8.452;2023-07-28T16:27:43;99994.69;;;28.95
13497;BMP180;6820;49.374;8.452;2023-07-28T16:31:44;100003.25;;;29.01
13497;BMP180;6820;49.374;8.452;2023-07-28T16:35:46;99997.13;;;29.02
13497;BMP180;6820;49.374;8.452;2023-07-28T16:39:48;100007.63;;;28.99
13497;BMP180;6820;49.374;8.452;2023-07-28T16:43:51;99999.84;;;28.98
13497;BMP180;6820;49.374;8.452;2023-07-28T16:47:52;100001.47;;;29.02
13497;BMP180;6820;49.374;8.452;2023-07-28T16:51:55;99990.25;;;28.97
13497;BMP180;6820;49.374;8.452;2023-07-28T16:55:57;99992.03;;;28.96
13497;BMP180;6820;49.374;8.452;2023-07-28T16:59:59;99992.03;;;28.96
13497;BMP180;6820;49.374;8.452;2023-07-28T17:04:00;99995.53;;;28.95
13497;BMP180;6820;49.374;8.452;2023-07-28T17:08:02;99999.84;;;28.96
13497;BMP180;6820;49.374;8.452;2023-07-28T17:12:04;100001.56;;;28.97
13497;BMP180;6820;49.374;8.452;2023-07-28T17:16:05;99999.91;;;28.95
13497;BMP180;6820;49.374;8.452;2023-07-28T17:20:08;100000.81;;;28.91
13497;BMP180;6820;49.374;8.452;2023-07-28T17:24:09;100001.78;;;28.87
13497;BMP180;6820;49.374;8.452;2023-07-28T17:28:11;100010.41;;;28.89
13497;BMP180;6820;49.374;8.452;2023-07-28T17:32:13;100009.50;;;28.91
13497;BMP180;6820;49.374;8.452;2023-07-28T17:36:14;100013.84;;;28.92
13497;BMP180;6820;49.374;8.452;2023-07-28T17:40:16;100007.03;;;28.84
13497;BMP180;6820;49.374;8.452;2023-07-28T17:44:18;100004.41;;;28.85
13497;BMP180;6820;49.374;8.452;2023-07-28T17:48:19;99999.19;;;28.85
13497;BMP180;6820;49.374;8.452;2023-07-28T17:52:21;100001.00;;;28.82
13497;BMP180;6820;49.374;8.452;2023-07-28T17:56:23;100005.50;;;28.73
13497;BMP180;6820;49.374;8.452;2023-07-28T18:00:24;100004.91;;;28.57
13497;BMP180;6820;49.374;8.452;2023-07-28T18:04:26;100008.53;;;28.48
13497;BMP180;6820;49.374;8.452;2023-07-28T18:08:28;100001.72;;;28.38
13497;BMP180;6820;49.374;8.452;2023-07-28T18:12:29;100007.00;;;28.33
13497;BMP180;6820;49.374;8.452;2023-07-28T18:16:31;100000.25;;;28.23
13497;BMP180;6820;49.374;8.452;2023-07-28T18:20:33;99999.44;;;28.18
13497;BMP180;6820;49.374;8.452;2023-07-28T18:24:34;99997.75;;;28.15
13497;BMP180;6820;49.374;8.452;2023-07-28T18:28:39;100002.22;;;28.08
13497;BMP180;6820;49.374;8.452;2023-07-28T18:32:42;99990.19;;;27.98
13497;BMP180;6820;49.374;8.452;2023-07-28T18:36:44;99992.88;;;27.94
13497;BMP180;6820;49.374;8.452;2023-07-28T18:40:46;100001.56;;;27.90
13497;BMP180;6820;49.374;8.452;2023-07-28T18:44:48;100011.22;;;27.84
13497;BMP180;6820;49.374;8.452;2023-07-28T18:48:50;100013.88;;;27.79
13497;BMP180;6820;49.374;8.452;2023-07-28T18:52:51;100009.63;;;27.75
13497;BMP180;6820;49.374;8.452;2023-07-28T18:56:54;100010.47;;;27.74
13497;BMP180;6820;49.374;8.452;2023-07-28T19:00:55;100005.34;;;27.70
13497;BMP180;6820;49.374;8.452;2023-07-28T19:04:57;100007.97;;;27.68
13497;BMP180;6820;49.374;8.452;2023-07-28T19:08:59;100011.47;;;27.66
13497;BMP180;6820;49.374;8.452;2023-07-28T19:13:00;100021.91;;;27.63
13497;BMP180;6820;49.374;8.452;2023-07-28T19:17:02;100027.22;;;27.57
13497;BMP180;6820;49.374;8.452;2023-07-28T19:21:04;100031.56;;;27.56
13497;BMP180;6820;49.374;8.452;2023-07-28T19:25:06;100038.53;;;27.55
13497;BMP180;6820;49.374;8.452;2023-07-28T19:29:08;100042.88;;;27.53
13497;BMP180;6820;49.374;8.452;2023-07-28T19:33:10;100047.28;;;27.48
13497;BMP180;6820;49.374;8.452;2023-07-28T19:37:12;100050.88;;;27.38
13497;BMP180;6820;49.374;8.452;2023-07-28T19:41:13;100058.78;;;27.26
13497;BMP180;6820;49.374;8.452;2023-07-28T19:45:18;100071.88;;;27.17
13497;BMP180;6820;49.374;8.452;2023-07-28T19:49:20;100075.41;;;27.12
13497;BMP180;6820;49.374;8.452;2023-07-28T19:53:21;100070.25;;;27.09
13497;BMP180;6820;49.374;8.452;2023-07-28T19:57:23;100064.13;;;27.14
13497;BMP180;6820;49.374;8.452;2023-07-28T20:01:25;100068.47;;;27.14
13497;BMP180;6820;49.374;8.452;2023-07-28T20:05:32;100074.56;;;27.11
13497;BMP180;6820;49.374;8.452;2023-07-28T20:09:34;100066.78;;;27.05
13497;BMP180;6820;49.374;8.452;2023-07-28T20:13:35;100048.69;;;26.96
13497;BMP180;6820;49.374;8.452;2023-07-28T20:17:37;100067.81;;;26.93
13497;BMP180;6820;49.374;8.452;2023-07-28T20:21:39;100078.25;;;26.88
13497;BMP180;6820;49.374;8.452;2023-07-28T20:25:40;100071.34;;;26.84
13497;BMP180;6820;49.374;8.452;2023-07-28T20:29:42;100075.69;;;26.82
13497;BMP180;6820;49.374;8.452;2023-07-28T20:33:43;100067.88;;;26.84
13497;BMP180;6820;49.374;8.452;2023-07-28T20:37:45;100065.28;;;26.82
13497;BMP180;6820;49.374;8.452;2023-07-28T20:41:47;100067.06;;;26.76
13497;BMP180;6820;49.374;8.452;2023-07-28T20:45:49;100069.66;;;26.73
13497;BMP180;6820;49.374;8.452;2023-07-28T20:49:50;100060.16;;;26.70
13497;BMP180;6820;49.374;8.452;2023-07-28T20:53:52;100049.81;;;26.66
13497;BMP180;6820;49.374;8.452;2023-07-28T20:57:53;100048.09;;;26.63
13497;BMP180;6820;49.374;8.452;2023-07-28T21:01:55;100047.25;;;26.57
13497;BMP180;6820;49.374;8.452;2023-07-28T21:05:57;100044.69;;;26.54
13497;BMP180;6820;49.374;8.452;2023-07-28T21:09:58;100045.56;;;26.52
13497;BMP180;6820;49.374;8.452;2023-07-28T21:22:03;100055.16;;;26.48
13497;BMP180;6820;49.374;8.452;2023-07-28T21:26:06;100049.09;;;26.48
13497;BMP180;6820;49.374;8.452;2023-07-28T21:30:08;100039.56;;;26.45
13497;BMP180;6820;49.374;8.452;2023-07-28T21:34:10;100034.38;;;26.44
13497;BMP180;6820;49.374;8.452;2023-07-28T21:38:15;100033.53;;;26.43
13497;BMP180;6820;49.374;8.452;2023-07-28T21:42:16;100043.06;;;26.43
13497;BMP180;6820;49.374;8.452;2023-07-28T21:46:18;100034.38;;;26.45
13497;BMP180;6820;49.374;8.452;2023-07-28T21:50:21;100045.63;;;26.47
13497;BMP180;6820;49.374;8.452;2023-07-28T21:54:23;100043.91;;;26.45
13497;BMP180;6820;49.374;8.452;2023-07-28T21:58:24;100043.94;;;26.42
13497;BMP180;6820;49.374;8.452;2023-07-28T22:02:26;100040.50;;;26.37
13497;BMP180;6820;49.374;8.452;2023-07-28T22:06:28;100037.06;;;26.31
13497;BMP180;6820;49.374;8.452;2023-07-28T22:10:29;100042.31;;;26.25
13497;BMP180;6820;49.374;8.452;2023-07-28T22:14:31;100045.78;;;26.25
13497;BMP180;6820;49.374;8.452;2023-07-28T22:18:33;100037.94;;;26.34
13497;BMP180;6820;49.374;8.452;2023-07-28T22:22:34;100045.69;;;26.40
13497;BMP180;6820;49.374;8.452;2023-07-28T22:26:36;100048.28;;;26.38
13497;BMP180;6820;49.374;8.452;2023-07-28T22:30:38;100047.44;;;26.35
13497;BMP180;6820;49.374;8.452;2023-07-28T22:34:40;100044.03;;;26.27
13497;BMP180;6820;49.374;8.452;2023-07-28T22:38:42;100041.47;;;26.26
13497;BMP180;6820;49.374;8.452;2023-07-28T22:42:44;100033.69;;;26.20
13497;BMP180;6820;49.374;8.452;2023-07-28T22:46:46;100045.00;;;26.13
13497;BMP180;6820;49.374;8.452;2023-07-28T22:50:47;100039.78;;;26.11
13497;BMP180;6820;49.374;8.452;2023-07-28T22:54:49;100038.09;;;26.06
13497;BMP180;6820;49.374;8.452;2023-07-28T22:59:06;100038.09;;;26.06
13497;BMP180;6820;49.374;8.452;2023-07-28T23:03:08;100025.91;;;26.17
13497;BMP180;6820;49.374;8.452;2023-07-28T23:07:09;100023.31;;;26.21
13497;BMP180;6820;49.374;8.452;2023-07-28T23:11:12;100019.00;;;26.19
13497;BMP180;6820;49.374;8.452;2023-07-28T23:15:14;100012.91;;;26.21
13497;BMP180;6820;49.374;8.452;2023-07-28T23:19:16;100015.47;;;26.24
13497;BMP180;6820;49.374;8.452;2023-07-28T23:23:17;100001.59;;;26.25
13497;BMP180;6820;49.374;8.452;2023-07-28T23:27:19;100000.72;;;26.28
13497;BMP180;6820;49.374;8.452;2023-07-28T23:31:23;100018.00;;;26.34
13497;BMP180;6820;49.374;8.452;2023-07-28T23:35:27;100004.06;;;26.43
13497;BMP180;6820;49.374;8.452;2023-07-28T23:39:29;100001.47;;;26.41
13497;BMP180;6820;49.374;8.452;2023-07-28T23:43:30;99994.56;;;26.40
13497;BMP180;6820;49.374;8.452;2023-07-28T23:47:32;99998.09;;;26.33